sensor_id;sensor_type;location;lat;lon;timestamp;P1;durP1;ratioP1;P2;durP2;ratioP2
71763;SDS011;59602;52.142;5.408;2023-12-22T00:00:23;9.65;;;0.30;;
71763;SDS011;59602;52.142;5.408;2023-12-22T00:02:50;4.50;;;0.30;;
71763;SDS011;59602;52.142;5.408;2023-12-22T00:05:16;3.10;;;0.20;;
71763;SDS011;59602;52.142;5.408;2023-12-22T00:07:46;6.53;;;0.30;;
71763;SDS011;59602;52.142;5.408;2023-12-22T00:10:14;5.20;;;0.20;;
71763;SDS011;59602;52.142;5.408;2023-12-22T00:12:41;5.35;;;0.38;;
71763;SDS011;59602;52.142;5.408;2023-12-22T00:15:09;3.33;;;0.10;;
71763;SDS011;59602;52.142;5.408;2023-12-22T00:17:36;5.22;;;0.55;;
71763;SDS011;59602;52.142;5.408;2023-12-22T00:20:05;3.85;;;0.10;;
71763;SDS011;59602;52.142;5.408;2023-12-22T00:22:32;3.53;;;0.20;;
71763;SDS011;59602;52.142;5.408;2023-12-22T00:25:01;4.30;;;0.10;;
71763;SDS011;59602;52.142;5.408;2023-12-22T00:27:28;5.50;;;0.23;;
71763;SDS011;59602;52.142;5.408;2023-12-22T00:29:57;4.00;;;0.10;;
71763;SDS011;59602;52.142;5.408;2023-12-22T00:32:25;2.50;;;0.10;;
71763;SDS011;59602;52.142;5.408;2023-12-22T00:34:52;1.42;;;0.10;;
71763;SDS011;59602;52.142;5.408;2023-12-22T00:37:19;1.70;;;0.00;;
71763;SDS011;59602;52.142;5.408;2023-12-22T00:39:46;1.80;;;0.10;;
71763;SDS011;59602;52.142;5.408;2023-12-22T00:42:14;1.85;;;0.00;;
71763;SDS011;59602;52.142;5.408;2023-12-22T00:44:43;2.30;;;0.00;;
71763;SDS011;59602;52.142;5.408;2023-12-22T00:47:10;3.72;;;0.20;;
71763;SDS011;59602;52.142;5.408;2023-12-22T00:49:37;3.35;;;0.03;;
71763;SDS011;59602;52.142;5.408;2023-12-22T00:52:04;6.23;;;0.10;;
71763;SDS011;59602;52.142;5.408;2023-12-22T00:54:31;0.80;;;0.10;;
71763;SDS011;59602;52.142;5.408;2023-12-22T00:56:58;2.40;;;0.10;;
71763;SDS011;59602;52.142;5.408;2023-12-22T00:59:26;4.72;;;0.10;;
71763;SDS011;59602;52.142;5.408;2023-12-22T01:01:56;4.63;;;0.10;;
71763;SDS011;59602;52.142;5.408;2023-12-22T01:04:24;4.80;;;0.20;;
71763;SDS011;59602;52.142;5.408;2023-12-22T01:06:52;3.78;;;0.00;;
71763;SDS011;59602;52.142;5.408;2023-12-22T01:09:19;7.30;;;0.20;;
71763;SDS011;59602;52.142;5.408;2023-12-22T01:11:46;4.07;;;0.20;;
71763;SDS011;59602;52.142;5.408;2023-12-22T01:14:13;3.58;;;0.20;;
71763;SDS011;59602;52.142;5.408;2023-12-22T01:16:40;4.23;;;0.10;;
71763;SDS011;59602;52.142;5.408;2023-12-22T01:19:07;3.90;;;0.10;;
71763;SDS011;59602;52.142;5.408;2023-12-22T01:21:34;2.92;;;0.10;;
71763;SDS011;59602;52.142;5.408;2023-12-22T01:24:01;2.55;;;0.20;;
71763;SDS011;59602;52.142;5.408;2023-12-22T01:26:28;5.10;;;0.30;;
71763;SDS011;59602;52.142;5.408;2023-12-22T01:28:54;4.43;;;0.20;;
71763;SDS011;59602;52.142;5.408;2023-12-22T01:31:21;6.88;;;0.10;;
71763;SDS011;59602;52.142;5.408;2023-12-22T01:33:48;5.15;;;0.10;;
71763;SDS011;59602;52.142;5.408;2023-12-22T01:36:15;3.10;;;0.20;;
71763;SDS011;59602;52.142;5.408;2023-12-22T01:38:42;5.22;;;0.30;;
71763;SDS011;59602;52.142;5.408;2023-12-22T01:41:09;3.17;;;0.10;;
71763;SDS011;59602;52.142;5.408;2023-12-22T01:43:36;10.57;;;0.50;;
71763;SDS011;59602;52.142;5.408;2023-12-22T01:46:03;5.70;;;0.20;;
71763;SDS011;59602;52.142;5.408;2023-12-22T01:48:32;4.80;;;0.10;;
71763;SDS011;59602;52.142;5.408;2023-12-22T01:51:02;5.95;;;0.30;;
71763;SDS011;59602;52.142;5.408;2023-12-22T01:53:30;4.03;;;0.20;;
71763;SDS011;59602;52.142;5.408;2023-12-22T01:55:59;5.57;;;0.40;;
71763;SDS011;59602;52.142;5.408;2023-12-22T01:58:28;8.73;;;0.63;;
71763;SDS011;59602;52.142;5.408;2023-12-22T02:00:57;7.55;;;0.25;;
71763;SDS011;59602;52.142;5.408;2023-12-22T02:03:25;5.30;;;0.30;;
71763;SDS011;59602;52.142;5.408;2023-12-22T02:05:52;5.57;;;0.23;;
71763;SDS011;59602;52.142;5.408;2023-12-22T02:08:19;2.88;;;0.10;;
71763;SDS011;59602;52.142;5.408;2023-12-22T02:10:49;4.72;;;0.38;;
71763;SDS011;59602;52.142;5.408;2023-12-22T02:13:16;7.63;;;0.50;;
71763;SDS011;59602;52.142;5.408;2023-12-22T02:15:43;7.35;;;0.40;;
71763;SDS011;59602;52.142;5.408;2023-12-22T02:18:21;11.70;;;0.53;;
71763;SDS011;59602;52.142;5.408;2023-12-22T02:20:52;9.10;;;0.90;;
71763;SDS011;59602;52.142;5.408;2023-12-22T02:23:22;10.45;;;0.40;;
71763;SDS011;59602;52.142;5.408;2023-12-22T02:25:49;7.10;;;0.30;;
71763;SDS011;59602;52.142;5.408;2023-12-22T02:28:22;7.65;;;0.40;;
71763;SDS011;59602;52.142;5.408;2023-12-22T02:30:59;7.57;;;0.53;;
71763;SDS011;59602;52.142;5.408;2023-12-22T02:33:40;8.70;;;0.57;;
71763;SDS011;59602;52.142;5.408;2023-12-22T02:36:09;9.73;;;0.68;;
71763;SDS011;59602;52.142;5.408;2023-12-22T02:38:36;9.70;;;0.90;;
71763;SDS011;59602;52.142;5.408;2023-12-22T02:41:06;7.50;;;0.73;;
71763;SDS011;59602;52.142;5.408;2023-12-22T02:43:33;9.87;;;0.60;;
71763;SDS011;59602;52.142;5.408;2023-12-22T02:46:00;9.20;;;0.40;;
71763;SDS011;59602;52.142;5.408;2023-12-22T02:48:27;12.52;;;1.08;;
71763;SDS011;59602;52.142;5.408;2023-12-22T02:50:54;9.10;;;0.75;;
71763;SDS011;59602;52.142;5.408;2023-12-22T02:53:20;11.70;;;0.77;;
71763;SDS011;59602;52.142;5.408;2023-12-22T02:55:48;12.30;;;1.27;;
71763;SDS011;59602;52.142;5.408;2023-12-22T02:58:15;8.38;;;0.88;;
71763;SDS011;59602;52.142;5.408;2023-12-22T03:00:42;11.77;;;0.68;;
71763;SDS011;59602;52.142;5.408;2023-12-22T03:03:09;12.85;;;0.88;;
71763;SDS011;59602;52.142;5.408;2023-12-22T03:05:36;12.45;;;0.70;;
71763;SDS011;59602;52.142;5.408;2023-12-22T03:08:03;9.87;;;0.30;;
71763;SDS011;59602;52.142;5.408;2023-12-22T03:10:30;8.48;;;0.75;;
71763;SDS011;59602;52.142;5.408;2023-12-22T03:12:57;11.63;;;1.13;;
71763;SDS011;59602;52.142;5.408;2023-12-22T03:15:24;12.93;;;0.73;;
71763;SDS011;59602;52.142;5.408;2023-12-22T03:18:07;10.13;;;0.52;;
71763;SDS011;59602;52.142;5.408;2023-12-22T03:20:34;7.43;;;0.50;;
71763;SDS011;59602;52.142;5.408;2023-12-22T03:23:00;11.38;;;0.70;;
71763;SDS011;59602;52.142;5.408;2023-12-22T03:25:27;9.48;;;0.68;;
71763;SDS011;59602;52.142;5.408;2023-12-22T03:27:54;14.38;;;0.90;;
71763;SDS011;59602;52.142;5.408;2023-12-22T03:30:21;8.70;;;0.70;;
71763;SDS011;59602;52.142;5.408;2023-12-22T03:32:48;9.73;;;0.53;;
71763;SDS011;59602;52.142;5.408;2023-12-22T03:35:15;8.73;;;0.50;;
71763;SDS011;59602;52.142;5.408;2023-12-22T03:37:41;12.13;;;0.88;;
71763;SDS011;59602;52.142;5.408;2023-12-22T03:40:08;7.35;;;0.25;;
71763;SDS011;59602;52.142;5.408;2023-12-22T03:42:36;7.82;;;0.20;;
71763;SDS011;59602;52.142;5.408;2023-12-22T03:45:02;5.00;;;0.50;;
71763;SDS011;59602;52.142;5.408;2023-12-22T03:47:30;6.75;;;0.40;;
71763;SDS011;59602;52.142;5.408;2023-12-22T03:49:56;6.03;;;0.68;;
71763;SDS011;59602;52.142;5.408;2023-12-22T03:52:23;3.28;;;0.10;;
71763;SDS011;59602;52.142;5.408;2023-12-22T03:54:50;3.97;;;0.22;;
71763;SDS011;59602;52.142;5.408;2023-12-22T03:57:17;5.07;;;0.10;;
71763;SDS011;59602;52.142;5.408;2023-12-22T03:59:44;1.92;;;0.10;;
71763;SDS011;59602;52.142;5.408;2023-12-22T04:02:10;2.42;;;0.10;;
71763;SDS011;59602;52.142;5.408;2023-12-22T04:04:38;4.65;;;0.22;;
71763;SDS011;59602;52.142;5.408;2023-12-22T04:07:05;4.47;;;0.20;;
71763;SDS011;59602;52.142;5.408;2023-12-22T04:09:32;3.77;;;0.10;;
71763;SDS011;59602;52.142;5.408;2023-12-22T04:12:00;2.70;;;0.20;;
71763;SDS011;59602;52.142;5.408;2023-12-22T04:14:26;5.68;;;0.13;;
71763;SDS011;59602;52.142;5.408;2023-12-22T04:16:53;4.28;;;0.20;;
71763;SDS011;59602;52.142;5.408;2023-12-22T04:19:20;4.75;;;0.20;;
71763;SDS011;59602;52.142;5.408;2023-12-22T04:21:47;4.13;;;0.23;;
71763;SDS011;59602;52.142;5.408;2023-12-22T04:24:15;3.70;;;0.30;;
71763;SDS011;59602;52.142;5.408;2023-12-22T04:26:42;4.38;;;0.10;;
71763;SDS011;59602;52.142;5.408;2023-12-22T04:29:08;7.10;;;0.25;;
71763;SDS011;59602;52.142;5.408;2023-12-22T04:31:35;5.07;;;0.20;;
71763;SDS011;59602;52.142;5.408;2023-12-22T04:34:02;8.20;;;0.60;;
71763;SDS011;59602;52.142;5.408;2023-12-22T04:36:29;5.95;;;0.40;;
71763;SDS011;59602;52.142;5.408;2023-12-22T04:38:56;8.25;;;0.85;;
71763;SDS011;59602;52.142;5.408;2023-12-22T04:41:23;5.13;;;0.30;;
71763;SDS011;59602;52.142;5.408;2023-12-22T04:43:50;5.95;;;0.28;;
71763;SDS011;59602;52.142;5.408;2023-12-22T04:46:16;7.23;;;0.30;;
71763;SDS011;59602;52.142;5.408;2023-12-22T04:48:43;8.75;;;0.35;;
71763;SDS011;59602;52.142;5.408;2023-12-22T04:51:10;8.18;;;0.50;;
71763;SDS011;59602;52.142;5.408;2023-12-22T04:53:37;4.35;;;0.30;;
71763;SDS011;59602;52.142;5.408;2023-12-22T04:56:03;11.18;;;0.30;;
71763;SDS011;59602;52.142;5.408;2023-12-22T04:58:30;7.47;;;0.53;;
71763;SDS011;59602;52.142;5.408;2023-12-22T05:00:57;11.93;;;0.50;;
71763;SDS011;59602;52.142;5.408;2023-12-22T05:03:25;6.55;;;0.30;;
71763;SDS011;59602;52.142;5.408;2023-12-22T05:05:52;9.55;;;0.40;;
71763;SDS011;59602;52.142;5.408;2023-12-22T05:08:19;8.25;;;0.40;;
71763;SDS011;59602;52.142;5.408;2023-12-22T05:10:46;8.13;;;0.40;;
71763;SDS011;59602;52.142;5.408;2023-12-22T05:13:15;8.15;;;0.85;;
71763;SDS011;59602;52.142;5.408;2023-12-22T05:15:42;9.45;;;0.40;;
71763;SDS011;59602;52.142;5.408;2023-12-22T05:18:08;6.40;;;0.40;;
71763;SDS011;59602;52.142;5.408;2023-12-22T05:20:35;9.68;;;0.98;;
71763;SDS011;59602;52.142;5.408;2023-12-22T05:23:02;14.40;;;1.40;;
71763;SDS011;59602;52.142;5.408;2023-12-22T05:25:29;11.43;;;0.65;;
71763;SDS011;59602;52.142;5.408;2023-12-22T05:27:56;10.95;;;0.50;;
71763;SDS011;59602;52.142;5.408;2023-12-22T05:30:23;12.23;;;0.88;;
71763;SDS011;59602;52.142;5.408;2023-12-22T05:32:50;8.27;;;0.77;;
71763;SDS011;59602;52.142;5.408;2023-12-22T05:35:17;11.13;;;0.40;;
71763;SDS011;59602;52.142;5.408;2023-12-22T05:37:46;11.73;;;0.80;;
71763;SDS011;59602;52.142;5.408;2023-12-22T05:40:15;9.63;;;0.65;;
71763;SDS011;59602;52.142;5.408;2023-12-22T05:42:42;10.30;;;0.47;;
71763;SDS011;59602;52.142;5.408;2023-12-22T05:45:13;4.90;;;0.20;;
71763;SDS011;59602;52.142;5.408;2023-12-22T05:47:40;4.63;;;0.47;;
71763;SDS011;59602;52.142;5.408;2023-12-22T05:50:07;9.35;;;0.93;;
71763;SDS011;59602;52.142;5.408;2023-12-22T05:52:39;5.35;;;0.30;;
71763;SDS011;59602;52.142;5.408;2023-12-22T05:55:06;7.60;;;0.40;;
71763;SDS011;59602;52.142;5.408;2023-12-22T05:57:36;10.75;;;0.68;;
71763;SDS011;59602;52.142;5.408;2023-12-22T06:00:04;5.83;;;0.30;;
71763;SDS011;59602;52.142;5.408;2023-12-22T06:02:36;5.65;;;0.20;;
71763;SDS011;59602;52.142;5.408;2023-12-22T06:05:03;6.53;;;0.68;;
71763;SDS011;59602;52.142;5.408;2023-12-22T06:07:30;4.75;;;0.30;;
71763;SDS011;59602;52.142;5.408;2023-12-22T06:09:57;7.68;;;0.30;;
71763;SDS011;59602;52.142;5.408;2023-12-22T06:12:24;7.50;;;0.30;;
71763;SDS011;59602;52.142;5.408;2023-12-22T06:14:51;8.15;;;0.47;;
71763;SDS011;59602;52.142;5.408;2023-12-22T06:17:18;7.45;;;0.32;;
71763;SDS011;59602;52.142;5.408;2023-12-22T06:19:45;6.13;;;0.50;;
71763;SDS011;59602;52.142;5.408;2023-12-22T06:22:12;5.40;;;0.40;;
71763;SDS011;59602;52.142;5.408;2023-12-22T06:24:39;6.87;;;0.60;;
71763;SDS011;59602;52.142;5.408;2023-12-22T06:27:34;8.98;;;0.47;;
71763;SDS011;59602;52.142;5.408;2023-12-22T06:30:14;5.60;;;0.30;;
71763;SDS011;59602;52.142;5.408;2023-12-22T06:32:41;9.07;;;0.50;;
71763;SDS011;59602;52.142;5.408;2023-12-22T06:35:08;11.73;;;0.88;;
71763;SDS011;59602;52.142;5.408;2023-12-22T06:37:40;10.30;;;0.50;;
71763;SDS011;59602;52.142;5.408;2023-12-22T06:40:09;10.73;;;0.85;;
71763;SDS011;59602;52.142;5.408;2023-12-22T06:42:39;8.48;;;0.50;;
71763;SDS011;59602;52.142;5.408;2023-12-22T06:45:06;8.50;;;1.02;;
71763;SDS011;59602;52.142;5.408;2023-12-22T06:47:33;11.63;;;1.13;;
71763;SDS011;59602;52.142;5.408;2023-12-22T06:50:00;10.20;;;0.67;;
71763;SDS011;59602;52.142;5.408;2023-12-22T06:52:27;7.97;;;0.50;;
71763;SDS011;59602;52.142;5.408;2023-12-22T06:54:54;9.55;;;0.70;;
71763;SDS011;59602;52.142;5.408;2023-12-22T06:57:21;7.90;;;1.02;;
71763;SDS011;59602;52.142;5.408;2023-12-22T06:59:50;8.98;;;0.30;;
71763;SDS011;59602;52.142;5.408;2023-12-22T07:02:19;15.90;;;1.07;;
71763;SDS011;59602;52.142;5.408;2023-12-22T07:05:05;8.32;;;0.60;;
71763;SDS011;59602;52.142;5.408;2023-12-22T07:07:50;9.75;;;0.60;;
71763;SDS011;59602;52.142;5.408;2023-12-22T07:10:18;9.35;;;0.80;;
71763;SDS011;59602;52.142;5.408;2023-12-22T07:12:45;9.65;;;0.65;;
71763;SDS011;59602;52.142;5.408;2023-12-22T07:15:12;14.37;;;0.70;;
71763;SDS011;59602;52.142;5.408;2023-12-22T07:17:41;10.30;;;0.43;;
71763;SDS011;59602;52.142;5.408;2023-12-22T07:20:09;10.10;;;0.70;;
71763;SDS011;59602;52.142;5.408;2023-12-22T07:22:36;9.32;;;0.82;;
71763;SDS011;59602;52.142;5.408;2023-12-22T07:25:05;17.25;;;1.27;;
71763;SDS011;59602;52.142;5.408;2023-12-22T07:27:34;13.17;;;0.80;;
71763;SDS011;59602;52.142;5.408;2023-12-22T07:30:01;13.70;;;0.80;;
71763;SDS011;59602;52.142;5.408;2023-12-22T07:32:28;14.05;;;1.20;;
71763;SDS011;59602;52.142;5.408;2023-12-22T07:34:56;12.95;;;1.55;;
71763;SDS011;59602;52.142;5.408;2023-12-22T07:37:24;13.77;;;1.17;;
71763;SDS011;59602;52.142;5.408;2023-12-22T07:39:52;11.67;;;0.90;;
71763;SDS011;59602;52.142;5.408;2023-12-22T07:42:19;14.55;;;0.98;;
71763;SDS011;59602;52.142;5.408;2023-12-22T07:44:45;11.65;;;1.10;;
71763;SDS011;59602;52.142;5.408;2023-12-22T07:47:12;16.48;;;1.35;;
71763;SDS011;59602;52.142;5.408;2023-12-22T07:49:40;10.88;;;0.77;;
71763;SDS011;59602;52.142;5.408;2023-12-22T07:52:07;9.63;;;0.73;;
71763;SDS011;59602;52.142;5.408;2023-12-22T07:54:34;10.25;;;0.75;;
71763;SDS011;59602;52.142;5.408;2023-12-22T07:57:02;9.68;;;0.45;;
71763;SDS011;59602;52.142;5.408;2023-12-22T07:59:29;7.43;;;1.30;;
71763;SDS011;59602;52.142;5.408;2023-12-22T08:01:58;10.77;;;0.68;;
71763;SDS011;59602;52.142;5.408;2023-12-22T08:04:25;9.77;;;1.00;;
71763;SDS011;59602;52.142;5.408;2023-12-22T08:06:52;9.35;;;0.60;;
71763;SDS011;59602;52.142;5.408;2023-12-22T08:09:19;11.82;;;0.73;;
71763;SDS011;59602;52.142;5.408;2023-12-22T08:11:46;13.18;;;0.57;;
71763;SDS011;59602;52.142;5.408;2023-12-22T08:14:14;8.27;;;0.60;;
71763;SDS011;59602;52.142;5.408;2023-12-22T08:16:40;13.20;;;1.30;;
71763;SDS011;59602;52.142;5.408;2023-12-22T08:19:07;14.75;;;1.48;;
71763;SDS011;59602;52.142;5.408;2023-12-22T08:21:34;12.48;;;1.00;;
71763;SDS011;59602;52.142;5.408;2023-12-22T08:24:11;15.30;;;0.80;;
71763;SDS011;59602;52.142;5.408;2023-12-22T08:26:48;16.55;;;0.93;;
71763;SDS011;59602;52.142;5.408;2023-12-22T08:29:16;12.17;;;1.00;;
71763;SDS011;59602;52.142;5.408;2023-12-22T08:31:42;13.20;;;1.52;;
71763;SDS011;59602;52.142;5.408;2023-12-22T08:34:10;12.02;;;0.93;;
71763;SDS011;59602;52.142;5.408;2023-12-22T08:36:37;9.85;;;0.80;;
71763;SDS011;59602;52.142;5.408;2023-12-22T08:39:05;10.85;;;0.68;;
71763;SDS011;59602;52.142;5.408;2023-12-22T08:41:32;9.90;;;0.50;;
71763;SDS011;59602;52.142;5.408;2023-12-22T08:44:03;8.90;;;0.60;;
71763;SDS011;59602;52.142;5.408;2023-12-22T08:46:31;7.90;;;1.05;;
71763;SDS011;59602;52.142;5.408;2023-12-22T08:48:58;5.05;;;0.65;;
71763;SDS011;59602;52.142;5.408;2023-12-22T08:51:29;8.45;;;0.63;;
71763;SDS011;59602;52.142;5.408;2023-12-22T08:53:58;11.73;;;1.50;;
71763;SDS011;59602;52.142;5.408;2023-12-22T08:56:25;9.05;;;0.50;;
71763;SDS011;59602;52.142;5.408;2023-12-22T08:58:53;7.15;;;0.40;;
71763;SDS011;59602;52.142;5.408;2023-12-22T09:01:27;6.85;;;0.35;;
71763;SDS011;59602;52.142;5.408;2023-12-22T09:03:53;7.13;;;0.63;;
71763;SDS011;59602;52.142;5.408;2023-12-22T09:06:20;12.50;;;0.70;;
71763;SDS011;59602;52.142;5.408;2023-12-22T09:08:49;11.98;;;2.28;;
71763;SDS011;59602;52.142;5.408;2023-12-22T09:11:17;14.82;;;0.93;;
71763;SDS011;59602;52.142;5.408;2023-12-22T09:13:45;12.68;;;0.73;;
71763;SDS011;59602;52.142;5.408;2023-12-22T09:16:12;7.88;;;0.57;;
71763;SDS011;59602;52.142;5.408;2023-12-22T09:18:42;9.97;;;1.90;;
71763;SDS011;59602;52.142;5.408;2023-12-22T09:21:11;6.40;;;0.90;;
71763;SDS011;59602;52.142;5.408;2023-12-22T09:23:38;6.95;;;0.60;;
71763;SDS011;59602;52.142;5.408;2023-12-22T09:26:04;2.25;;;0.10;;
71763;SDS011;59602;52.142;5.408;2023-12-22T09:28:31;2.95;;;0.10;;
71763;SDS011;59602;52.142;5.408;2023-12-22T09:30:58;2.10;;;0.03;;
71763;SDS011;59602;52.142;5.408;2023-12-22T09:33:25;4.68;;;0.10;;
71763;SDS011;59602;52.142;5.408;2023-12-22T09:35:52;0.45;;;0.00;;
71763;SDS011;59602;52.142;5.408;2023-12-22T09:38:19;1.27;;;0.00;;
71763;SDS011;59602;52.142;5.408;2023-12-22T09:40:47;0.68;;;0.10;;
71763;SDS011;59602;52.142;5.408;2023-12-22T09:43:14;0.47;;;0.00;;
71763;SDS011;59602;52.142;5.408;2023-12-22T09:45:41;0.77;;;0.00;;
71763;SDS011;59602;52.142;5.408;2023-12-22T09:48:09;3.53;;;0.00;;
71763;SDS011;59602;52.142;5.408;2023-12-22T09:50:42;2.78;;;0.13;;
71763;SDS011;59602;52.142;5.408;2023-12-22T09:53:13;3.25;;;0.10;;
71763;SDS011;59602;52.142;5.408;2023-12-22T09:55:42;2.80;;;0.10;;
71763;SDS011;59602;52.142;5.408;2023-12-22T09:58:10;3.67;;;0.10;;
71763;SDS011;59602;52.142;5.408;2023-12-22T10:00:38;3.40;;;0.22;;
71763;SDS011;59602;52.142;5.408;2023-12-22T10:03:06;7.50;;;0.13;;
71763;SDS011;59602;52.142;5.408;2023-12-22T10:05:33;8.38;;;0.40;;
71763;SDS011;59602;52.142;5.408;2023-12-22T10:08:00;4.80;;;0.40;;
71763;SDS011;59602;52.142;5.408;2023-12-22T10:10:28;3.35;;;0.30;;
71763;SDS011;59602;52.142;5.408;2023-12-22T10:12:56;4.78;;;0.10;;
71763;SDS011;59602;52.142;5.408;2023-12-22T10:15:24;7.07;;;0.60;;
71763;SDS011;59602;52.142;5.408;2023-12-22T10:17:53;6.50;;;0.22;;
71763;SDS011;59602;52.142;5.408;2023-12-22T10:20:20;6.80;;;0.30;;
71763;SDS011;59602;52.142;5.408;2023-12-22T10:22:49;3.47;;;0.55;;
71763;SDS011;59602;52.142;5.408;2023-12-22T10:25:19;6.43;;;0.68;;
71763;SDS011;59602;52.142;5.408;2023-12-22T10:27:46;4.55;;;0.40;;
71763;SDS011;59602;52.142;5.408;2023-12-22T10:30:14;8.40;;;0.73;;
71763;SDS011;59602;52.142;5.408;2023-12-22T10:32:41;4.17;;;0.20;;
71763;SDS011;59602;52.142;5.408;2023-12-22T10:35:08;5.13;;;0.88;;
71763;SDS011;59602;52.142;5.408;2023-12-22T10:37:36;3.63;;;0.30;;
71763;SDS011;59602;52.142;5.408;2023-12-22T10:40:07;5.35;;;0.55;;
71763;SDS011;59602;52.142;5.408;2023-12-22T10:42:36;4.90;;;0.20;;
71763;SDS011;59602;52.142;5.408;2023-12-22T10:45:03;4.67;;;0.30;;
71763;SDS011;59602;52.142;5.408;2023-12-22T10:47:30;6.53;;;0.40;;
71763;SDS011;59602;52.142;5.408;2023-12-22T10:49:57;3.25;;;0.15;;
71763;SDS011;59602;52.142;5.408;2023-12-22T10:52:28;3.78;;;0.20;;
71763;SDS011;59602;52.142;5.408;2023-12-22T10:54:59;4.40;;;0.20;;
71763;SDS011;59602;52.142;5.408;2023-12-22T10:57:26;2.93;;;0.30;;
71763;SDS011;59602;52.142;5.408;2023-12-22T10:59:59;6.40;;;0.20;;
71763;SDS011;59602;52.142;5.408;2023-12-22T11:02:47;3.53;;;0.20;;
71763;SDS011;59602;52.142;5.408;2023-12-22T11:05:44;3.17;;;0.15;;
71763;SDS011;59602;52.142;5.408;2023-12-22T11:08:12;4.32;;;0.20;;
71763;SDS011;59602;52.142;5.408;2023-12-22T11:10:42;3.30;;;0.20;;
71763;SDS011;59602;52.142;5.408;2023-12-22T11:13:11;3.38;;;0.17;;
71763;SDS011;59602;52.142;5.408;2023-12-22T11:15:39;3.53;;;0.20;;
71763;SDS011;59602;52.142;5.408;2023-12-22T11:18:07;4.35;;;0.43;;
71763;SDS011;59602;52.142;5.408;2023-12-22T11:20:35;3.90;;;0.30;;
71763;SDS011;59602;52.142;5.408;2023-12-22T11:23:04;4.40;;;0.27;;
71763;SDS011;59602;52.142;5.408;2023-12-22T11:25:32;6.50;;;0.25;;
71763;SDS011;59602;52.142;5.408;2023-12-22T11:28:02;2.78;;;0.10;;
71763;SDS011;59602;52.142;5.408;2023-12-22T11:30:32;15.55;;;0.60;;
71763;SDS011;59602;52.142;5.408;2023-12-22T11:33:01;6.75;;;0.40;;
71763;SDS011;59602;52.142;5.408;2023-12-22T11:35:30;4.37;;;0.50;;
71763;SDS011;59602;52.142;5.408;2023-12-22T11:38:00;2.92;;;0.25;;
71763;SDS011;59602;52.142;5.408;2023-12-22T11:40:29;8.13;;;0.40;;
71763;SDS011;59602;52.142;5.408;2023-12-22T11:42:56;8.75;;;0.28;;
71763;SDS011;59602;52.142;5.408;2023-12-22T11:45:25;7.88;;;0.40;;
71763;SDS011;59602;52.142;5.408;2023-12-22T11:47:52;2.43;;;0.23;;
71763;SDS011;59602;52.142;5.408;2023-12-22T11:50:29;7.13;;;0.40;;
71763;SDS011;59602;52.142;5.408;2023-12-22T11:53:02;4.00;;;0.30;;
71763;SDS011;59602;52.142;5.408;2023-12-22T11:55:57;4.68;;;0.10;;
71763;SDS011;59602;52.142;5.408;2023-12-22T11:58:41;4.95;;;0.20;;
71763;SDS011;59602;52.142;5.408;2023-12-22T12:01:09;5.23;;;0.20;;
71763;SDS011;59602;52.142;5.408;2023-12-22T12:03:48;2.53;;;0.20;;
71763;SDS011;59602;52.142;5.408;2023-12-22T12:14:22;6.17;;;0.20;;
71763;SDS011;59602;52.142;5.408;2023-12-22T12:16:57;7.78;;;0.30;;
71763;SDS011;59602;52.142;5.408;2023-12-22T12:19:36;3.28;;;0.50;;
71763;SDS011;59602;52.142;5.408;2023-12-22T12:22:14;3.60;;;0.57;;
71763;SDS011;59602;52.142;5.408;2023-12-22T12:24:41;6.03;;;0.50;;
71763;SDS011;59602;52.142;5.408;2023-12-22T12:27:09;4.27;;;0.20;;
71763;SDS011;59602;52.142;5.408;2023-12-22T12:29:36;3.22;;;0.30;;
71763;SDS011;59602;52.142;5.408;2023-12-22T12:32:04;3.25;;;0.20;;
71763;SDS011;59602;52.142;5.408;2023-12-22T12:34:32;5.15;;;0.30;;
71763;SDS011;59602;52.142;5.408;2023-12-22T12:37:00;5.32;;;0.20;;
71763;SDS011;59602;52.142;5.408;2023-12-22T12:39:29;4.17;;;0.13;;
71763;SDS011;59602;52.142;5.408;2023-12-22T12:41:59;5.15;;;0.65;;
71763;SDS011;59602;52.142;5.408;2023-12-22T12:44:28;3.92;;;0.30;;
71763;SDS011;59602;52.142;5.408;2023-12-22T12:46:56;3.85;;;0.20;;
71763;SDS011;59602;52.142;5.408;2023-12-22T12:49:23;7.20;;;0.20;;
71763;SDS011;59602;52.142;5.408;2023-12-22T12:51:54;3.77;;;0.40;;
71763;SDS011;59602;52.142;5.408;2023-12-22T12:54:24;5.00;;;0.20;;
71763;SDS011;59602;52.142;5.408;2023-12-22T12:56:52;8.15;;;0.60;;
71763;SDS011;59602;52.142;5.408;2023-12-22T12:59:19;6.10;;;0.40;;
71763;SDS011;59602;52.142;5.408;2023-12-22T13:01:47;3.92;;;0.22;;
71763;SDS011;59602;52.142;5.408;2023-12-22T13:04:15;5.63;;;0.20;;
71763;SDS011;59602;52.142;5.408;2023-12-22T13:06:46;8.70;;;0.30;;
71763;SDS011;59602;52.142;5.408;2023-12-22T13:09:13;5.78;;;0.35;;
71763;SDS011;59602;52.142;5.408;2023-12-22T13:11:41;6.75;;;0.20;;
71763;SDS011;59602;52.142;5.408;2023-12-22T13:14:22;2.80;;;0.20;;
71763;SDS011;59602;52.142;5.408;2023-12-22T13:16:53;3.73;;;0.37;;
71763;SDS011;59602;52.142;5.408;2023-12-22T13:19:23;5.82;;;0.30;;
71763;SDS011;59602;52.142;5.408;2023-12-22T13:21:55;9.02;;;0.65;;
71763;SDS011;59602;52.142;5.408;2023-12-22T13:24:22;7.35;;;0.43;;
71763;SDS011;59602;52.142;5.408;2023-12-22T13:26:59;9.15;;;0.43;;
71763;SDS011;59602;52.142;5.408;2023-12-22T13:29:28;2.73;;;0.20;;
71763;SDS011;59602;52.142;5.408;2023-12-22T13:31:55;8.05;;;0.30;;
71763;SDS011;59602;52.142;5.408;2023-12-22T13:34:22;3.72;;;0.47;;
71763;SDS011;59602;52.142;5.408;2023-12-22T13:36:49;4.75;;;0.30;;
71763;SDS011;59602;52.142;5.408;2023-12-22T13:39:16;5.20;;;0.30;;
71763;SDS011;59602;52.142;5.408;2023-12-22T13:41:43;2.50;;;0.20;;
71763;SDS011;59602;52.142;5.408;2023-12-22T13:44:13;7.68;;;0.30;;
71763;SDS011;59602;52.142;5.408;2023-12-22T13:46:40;5.97;;;0.20;;
71763;SDS011;59602;52.142;5.408;2023-12-22T13:49:09;6.20;;;0.30;;
71763;SDS011;59602;52.142;5.408;2023-12-22T13:51:39;5.65;;;0.40;;
71763;SDS011;59602;52.142;5.408;2023-12-22T13:54:07;4.10;;;0.20;;
71763;SDS011;59602;52.142;5.408;2023-12-22T13:56:34;3.78;;;0.25;;
71763;SDS011;59602;52.142;5.408;2023-12-22T13:59:03;6.20;;;0.30;;
71763;SDS011;59602;52.142;5.408;2023-12-22T14:01:32;7.47;;;0.40;;
71763;SDS011;59602;52.142;5.408;2023-12-22T14:03:59;9.98;;;0.30;;
71763;SDS011;59602;52.142;5.408;2023-12-22T14:06:27;8.33;;;0.30;;
71763;SDS011;59602;52.142;5.408;2023-12-22T14:08:54;9.75;;;0.57;;
71763;SDS011;59602;52.142;5.408;2023-12-22T14:11:22;7.25;;;0.32;;
71763;SDS011;59602;52.142;5.408;2023-12-22T14:13:49;7.20;;;0.63;;
71763;SDS011;59602;52.142;5.408;2023-12-22T14:16:16;7.57;;;0.20;;
71763;SDS011;59602;52.142;5.408;2023-12-22T14:18:43;4.43;;;0.30;;
71763;SDS011;59602;52.142;5.408;2023-12-22T14:21:11;6.10;;;0.88;;
71763;SDS011;59602;52.142;5.408;2023-12-22T14:23:38;4.32;;;0.35;;
71763;SDS011;59602;52.142;5.408;2023-12-22T14:26:05;5.43;;;0.40;;
71763;SDS011;59602;52.142;5.408;2023-12-22T14:28:32;7.53;;;0.30;;
71763;SDS011;59602;52.142;5.408;2023-12-22T14:30:59;3.27;;;0.27;;
71763;SDS011;59602;52.142;5.408;2023-12-22T14:33:26;5.97;;;0.40;;
71763;SDS011;59602;52.142;5.408;2023-12-22T14:35:53;9.02;;;0.50;;
71763;SDS011;59602;52.142;5.408;2023-12-22T14:38:20;4.85;;;0.57;;
71763;SDS011;59602;52.142;5.408;2023-12-22T14:40:47;7.40;;;0.50;;
71763;SDS011;59602;52.142;5.408;2023-12-22T14:43:14;7.67;;;0.40;;
71763;SDS011;59602;52.142;5.408;2023-12-22T14:45:40;9.00;;;0.70;;
71763;SDS011;59602;52.142;5.408;2023-12-22T14:48:07;11.18;;;0.73;;
71763;SDS011;59602;52.142;5.408;2023-12-22T14:50:34;5.28;;;0.28;;
71763;SDS011;59602;52.142;5.408;2023-12-22T14:53:01;4.45;;;0.50;;
71763;SDS011;59602;52.142;5.408;2023-12-22T14:55:29;7.47;;;0.40;;
71763;SDS011;59602;52.142;5.408;2023-12-22T14:57:55;9.45;;;0.43;;
71763;SDS011;59602;52.142;5.408;2023-12-22T15:00:22;6.93;;;0.50;;